createdAt,value
2023-01-21T00:00:51.303Z,8.37
2023-01-21T00:04:16.270Z,6.70
2023-01-21T00:07:39.676Z,8.97
2023-01-21T00:11:07.534Z,6.00
2023-01-21T00:14:31.098Z,9.37
2023-01-21T00:17:54.834Z,6.90
2023-01-21T00:21:20.030Z,9.93
2023-01-21T00:24:43.504Z,8.90
2023-01-21T00:28:07.152Z,9.53
2023-01-21T00:31:31.053Z,5.93
2023-01-21T00:34:54.903Z,7.00
2023-01-21T00:38:19.716Z,6.57
2023-01-21T00:41:43.638Z,6.60
2023-01-21T00:45:09.590Z,6.77
2023-01-21T00:48:34.568Z,7.07
2023-01-21T00:51:58.828Z,6.43
2023-01-21T00:55:23.782Z,6.10
2023-01-21T00:58:47.393Z,6.40
2023-01-21T01:02:11.391Z,7.23
2023-01-21T01:05:35.449Z,5.83
2023-01-21T01:08:59.693Z,6.80
2023-01-21T01:12:24.692Z,6.07
2023-01-21T01:15:51.827Z,6.40
2023-01-21T01:19:16.908Z,7.03
2023-01-21T01:22:40.442Z,5.97
2023-01-21T01:26:06.955Z,5.60
2023-01-21T01:29:32.102Z,5.27
2023-01-21T01:32:55.552Z,5.57
2023-01-21T01:36:23.557Z,6.10
2023-01-21T01:39:47.059Z,6.13
2023-01-21T01:43:18.846Z,5.43
2023-01-21T01:46:43.702Z,5.63
2023-01-21T01:50:12.620Z,5.00
2023-01-21T01:53:41.514Z,5.30
2023-01-21T01:57:10.988Z,4.57
2023-01-21T02:00:35.994Z,4.10
2023-01-21T02:04:04.546Z,3.03
2023-01-21T02:07:39.587Z,4.33
2023-01-21T02:11:03.537Z,3.17
2023-01-21T02:14:27.964Z,3.23
2023-01-21T02:18:07.932Z,4.80
2023-01-21T02:21:52.661Z,3.07
2023-01-21T02:25:46.583Z,2.77
2023-01-21T02:29:54.565Z,2.60
2023-01-21T02:33:55.130Z,3.70
2023-01-21T02:37:27.880Z,4.07
2023-01-21T02:41:06.744Z,3.10
2023-01-21T02:44:40.730Z,2.60
2023-01-21T02:48:11.939Z,2.53
2023-01-21T02:51:37.818Z,3.60
2023-01-21T02:55:03.484Z,3.17
2023-01-21T02:58:34.526Z,4.40
2023-01-21T03:02:08.641Z,3.43
2023-01-21T03:05:52.459Z,3.47
2023-01-21T03:14:46.616Z,4.00
2023-01-21T03:18:20.325Z,4.83
2023-01-21T03:21:45.589Z,3.80
2023-01-21T03:25:12.715Z,4.60
2023-01-21T03:28:41.851Z,4.10
2023-01-21T03:32:11.321Z,3.60
2023-01-21T03:35:41.850Z,4.70
2023-01-21T03:39:14.270Z,4.20
2023-01-21T03:42:38.173Z,5.20
2023-01-21T03:46:10.901Z,4.43
2023-01-21T03:49:40.195Z,4.67
2023-01-21T03:53:04.132Z,3.90
2023-01-21T03:56:29.410Z,4.00
2023-01-21T03:59:53.654Z,3.90
2023-01-21T04:03:17.004Z,6.43
2023-01-21T04:06:41.815Z,3.33
2023-01-21T04:10:06.663Z,3.40
2023-01-21T04:13:30.046Z,3.57
2023-01-21T04:16:53.462Z,3.97
2023-01-21T04:20:17.612Z,3.50
2023-01-21T04:23:42.521Z,3.33
2023-01-21T04:27:05.951Z,3.80
2023-01-21T04:30:29.866Z,3.50
2023-01-21T04:33:53.346Z,6.90
2023-01-21T04:37:17.047Z,4.77
2023-01-21T04:40:41.786Z,3.37
2023-01-21T04:44:05.407Z,3.53
2023-01-21T04:47:29.221Z,2.93
2023-01-21T04:50:52.701Z,3.17
2023-01-21T04:54:16.090Z,3.03
2023-01-21T04:57:40.889Z,3.60
2023-01-21T05:01:04.443Z,4.07
2023-01-21T05:04:27.833Z,2.90
2023-01-21T05:07:54.099Z,3.70
2023-01-21T05:11:20.808Z,5.13
2023-01-21T05:14:45.573Z,4.87
2023-01-21T05:18:09.035Z,5.80
2023-01-21T05:21:32.618Z,4.40
2023-01-21T05:24:55.969Z,4.80
2023-01-21T05:28:19.645Z,3.50
2023-01-21T05:31:45.164Z,5.17
2023-01-21T05:35:09.934Z,4.30
2023-01-21T05:38:33.576Z,7.80
2023-01-21T05:41:57.299Z,4.80
2023-01-21T05:45:20.765Z,6.87
2023-01-21T05:48:45.626Z,4.90
2023-01-21T05:52:09.214Z,4.50
2023-01-21T05:55:32.715Z,6.03
2023-01-21T05:58:56.219Z,7.70
2023-01-21T06:02:19.674Z,7.10
2023-01-21T06:05:45.445Z,8.23
2023-01-21T06:09:09.103Z,5.90
2023-01-21T06:12:32.657Z,6.13
2023-01-21T06:15:57.172Z,6.00
2023-01-21T06:19:20.738Z,7.23
2023-01-21T06:22:45.559Z,6.37
2023-01-21T06:26:09.113Z,8.67
2023-01-21T06:29:32.621Z,7.57
2023-01-21T06:32:56.182Z,6.30
2023-01-21T06:36:20.184Z,8.93
2023-01-21T06:39:45.210Z,7.40
2023-01-21T06:43:09.503Z,6.60
2023-01-21T06:46:33.202Z,8.97
2023-01-21T06:49:56.700Z,7.83
2023-01-21T06:53:20.226Z,8.67
2023-01-21T06:56:45.567Z,8.93
2023-01-21T07:00:11.654Z,10.97
2023-01-21T07:03:35.237Z,13.20
2023-01-21T07:06:58.848Z,13.03
2023-01-21T07:10:25.309Z,11.10
2023-01-21T07:13:50.466Z,11.07
2023-01-21T07:17:14.076Z,9.50
2023-01-21T07:20:40.783Z,10.17
2023-01-21T07:24:04.811Z,10.33
2023-01-21T07:27:28.606Z,13.10
2023-01-21T07:30:53.482Z,11.30
2023-01-21T07:34:17.967Z,11.07
2023-01-21T07:37:41.918Z,12.60
2023-01-21T07:41:05.718Z,12.83
2023-01-21T07:44:29.212Z,12.07
2023-01-21T07:47:54.089Z,12.57
2023-01-21T07:51:19.730Z,8.27
2023-01-21T07:54:44.004Z,9.63
2023-01-21T07:58:07.575Z,8.73
2023-01-21T08:01:32.345Z,10.70
2023-01-21T08:04:57.300Z,10.37
2023-01-21T08:08:21.267Z,11.10
2023-01-21T08:11:45.434Z,9.17
2023-01-21T08:15:10.278Z,10.60
2023-01-21T08:18:34.189Z,10.93
2023-01-21T08:21:59.397Z,11.53
2023-01-21T08:25:22.889Z,11.57
2023-01-21T08:28:46.783Z,8.40
2023-01-21T08:32:10.300Z,11.80
2023-01-21T08:35:34.824Z,11.93
2023-01-21T08:39:01.824Z,13.40
2023-01-21T08:42:25.699Z,16.03
2023-01-21T08:45:49.612Z,16.50
2023-01-21T08:49:13.258Z,15.67
2023-01-21T08:52:37.078Z,15.60
2023-01-21T08:56:03.355Z,10.67
2023-01-21T08:59:28.768Z,12.77
2023-01-21T09:02:52.963Z,17.20
2023-01-21T09:06:16.850Z,13.23
2023-01-21T09:09:40.685Z,16.57
2023-01-21T09:13:11.170Z,19.77
2023-01-21T09:16:36.376Z,14.40
2023-01-21T09:20:00.287Z,15.87
2023-01-21T09:23:26.627Z,13.70
2023-01-21T09:26:50.496Z,16.73
2023-01-21T09:30:16.647Z,18.77
2023-01-21T09:33:44.561Z,15.90
2023-01-21T09:37:08.448Z,15.57
2023-01-21T09:40:32.160Z,16.17
2023-01-21T09:44:03.193Z,12.30
2023-01-21T09:47:34.542Z,12.33
2023-01-21T09:51:01.416Z,11.27
2023-01-21T09:54:31.524Z,9.70
2023-01-21T09:58:15.713Z,9.87
2023-01-21T10:01:41.995Z,11.10
2023-01-21T10:05:40.144Z,10.53
2023-01-21T10:09:35.525Z,10.93
2023-01-21T10:13:27.134Z,15.20
2023-01-21T10:17:01.106Z,14.40
2023-01-21T10:20:32.032Z,20.23
2023-01-21T10:24:03.887Z,15.30
2023-01-21T10:27:30.794Z,15.03
2023-01-21T10:31:01.412Z,14.30
2023-01-21T10:34:25.246Z,13.60
2023-01-21T10:37:58.640Z,13.87
2023-01-21T10:41:34.614Z,9.03
2023-01-21T10:45:08.486Z,8.77
2023-01-21T10:48:41.091Z,9.90
2023-01-21T10:52:10.319Z,8.53
2023-01-21T10:55:56.248Z,10.23
2023-01-21T10:59:23.908Z,10.47
2023-01-21T11:02:53.168Z,8.07
2023-01-21T11:06:19.562Z,9.30
2023-01-21T11:09:46.610Z,11.27
2023-01-21T11:13:14.887Z,11.40
2023-01-21T11:16:50.974Z,9.03
2023-01-21T11:20:23.441Z,13.53
2023-01-21T11:23:56.032Z,10.63
2023-01-21T11:27:22.187Z,12.33
2023-01-21T11:30:51.767Z,12.40
2023-01-21T11:34:18.458Z,13.67
2023-01-21T11:37:46.779Z,12.97
2023-01-21T11:41:20.870Z,11.27
2023-01-21T11:44:54.693Z,11.23
2023-01-21T11:48:23.118Z,10.80
2023-01-21T11:51:48.239Z,14.97
2023-01-21T11:55:24.378Z,10.57
2023-01-21T11:58:48.430Z,11.20
2023-01-21T12:02:18.341Z,10.83
2023-01-21T12:05:48.049Z,12.67
2023-01-21T12:09:20.244Z,10.03
2023-01-21T12:13:06.777Z,13.00
2023-01-21T12:16:36.044Z,9.73
2023-01-21T12:20:15.857Z,10.93
2023-01-21T12:24:04.225Z,11.33
2023-01-21T12:27:38.749Z,10.37
2023-01-21T12:31:13.010Z,9.10
2023-01-21T12:34:42.543Z,8.10
2023-01-21T12:38:14.479Z,8.90
2023-01-21T12:41:42.880Z,8.77
2023-01-21T12:45:12.667Z,11.20
2023-01-21T12:48:41.047Z,10.03
2023-01-21T12:52:17.814Z,7.73
2023-01-21T12:56:05.449Z,9.43
2023-01-21T12:59:38.825Z,8.17
2023-01-21T13:03:18.720Z,9.90
2023-01-21T13:06:54.229Z,8.07
2023-01-21T13:10:23.422Z,10.37
2023-01-21T13:14:00.956Z,9.13
2023-01-21T13:17:31.873Z,11.23
2023-01-21T13:21:05.582Z,8.20
2023-01-21T13:24:35.037Z,8.30
2023-01-21T13:28:06.694Z,10.90
2023-01-21T13:31:39.138Z,8.97
2023-01-21T13:35:21.840Z,11.80
2023-01-21T13:38:55.620Z,12.10
2023-01-21T13:42:34.163Z,12.30
2023-01-21T13:46:12.423Z,10.50
2023-01-21T13:50:17.835Z,15.83
2023-01-21T13:54:19.325Z,13.63
2023-01-21T13:58:02.621Z,10.17
2023-01-21T14:01:31.320Z,11.27
2023-01-21T14:05:04.584Z,11.13
2023-01-21T14:08:39.563Z,12.13
2023-01-21T14:12:12.233Z,8.27
2023-01-21T14:15:56.115Z,9.00
2023-01-21T14:19:50.691Z,12.67
2023-01-21T14:23:41.499Z,10.83
2023-01-21T14:27:21.646Z,10.77
2023-01-21T14:30:51.182Z,11.57
2023-01-21T14:34:23.447Z,9.67
2023-01-21T14:37:56.153Z,9.60
2023-01-21T14:41:21.208Z,10.43
2023-01-21T14:45:02.014Z,9.30
2023-01-21T14:48:32.413Z,9.90
2023-01-21T14:51:56.023Z,10.23
2023-01-21T14:55:29.591Z,8.60
2023-01-21T14:58:59.358Z,10.70
2023-01-21T15:02:31.232Z,8.63
2023-01-21T15:05:59.153Z,10.30
2023-01-21T15:09:28.204Z,10.80
2023-01-21T15:12:56.786Z,11.13
2023-01-21T15:16:37.158Z,12.07
2023-01-21T15:20:46.237Z,8.87
2023-01-21T15:24:25.841Z,11.47
2023-01-21T15:28:44.513Z,12.60
2023-01-21T15:32:30.985Z,10.00
2023-01-21T15:35:56.644Z,10.53
2023-01-21T15:39:31.175Z,9.23
2023-01-21T15:43:03.275Z,10.30
2023-01-21T15:46:38.591Z,9.60
2023-01-21T15:50:17.984Z,8.23
2023-01-21T15:54:05.546Z,11.13
2023-01-21T15:57:47.586Z,9.53
2023-01-21T16:01:23.341Z,10.93
2023-01-21T16:05:09.677Z,9.10
2023-01-21T16:09:00.846Z,7.57
2023-01-21T16:12:40.120Z,8.80
2023-01-21T16:16:17.987Z,10.23
2023-01-21T16:19:48.345Z,9.10
2023-01-21T16:23:18.309Z,11.00
2023-01-21T16:26:41.880Z,9.13
2023-01-21T16:30:12.936Z,7.50
2023-01-21T16:33:36.575Z,9.00
2023-01-21T16:37:00.225Z,9.20
2023-01-21T16:40:31.371Z,9.10
2023-01-21T16:44:05.154Z,8.93
2023-01-21T16:47:37.745Z,8.30
2023-01-21T16:51:02.566Z,8.77
2023-01-21T16:54:29.142Z,7.40
2023-01-21T16:57:56.238Z,7.63
2023-01-21T17:01:21.870Z,9.90
2023-01-21T17:04:45.876Z,8.70
2023-01-21T17:08:14.867Z,6.80
2023-01-21T17:11:48.014Z,8.63
2023-01-21T17:15:22.187Z,9.40
2023-01-21T17:18:54.550Z,8.43
2023-01-21T17:22:23.679Z,8.73
2023-01-21T17:25:56.601Z,10.50
2023-01-21T17:29:26.681Z,8.10
2023-01-21T17:32:57.750Z,7.07
2023-01-21T17:36:33.993Z,10.87
2023-01-21T17:40:01.350Z,11.10
2023-01-21T17:43:28.166Z,7.83
2023-01-21T17:46:55.178Z,7.20
2023-01-21T17:50:25.176Z,10.10
2023-01-21T17:53:56.083Z,7.10
2023-01-21T17:57:37.345Z,8.97
2023-01-21T18:01:03.641Z,7.00
2023-01-21T18:04:27.807Z,7.93
2023-01-21T18:07:53.289Z,6.87
2023-01-21T18:11:18.344Z,8.73
2023-01-21T18:14:43.802Z,7.40
2023-01-21T18:18:18.039Z,8.67
2023-01-21T18:21:41.542Z,8.27
2023-01-21T18:25:08.775Z,7.90
2023-01-21T18:28:34.461Z,7.37
2023-01-21T18:31:58.264Z,7.40
2023-01-21T18:35:26.598Z,7.20
2023-01-21T18:38:50.089Z,6.83
2023-01-21T18:42:17.090Z,8.60
2023-01-21T18:45:41.065Z,10.83
2023-01-21T18:49:05.842Z,7.53
2023-01-21T18:52:30.684Z,8.00
2023-01-21T18:55:54.889Z,8.60
2023-01-21T18:59:22.318Z,9.57
2023-01-21T19:02:46.496Z,9.53
2023-01-21T19:06:15.775Z,9.23
2023-01-21T19:09:45.695Z,9.83
2023-01-21T19:13:10.808Z,8.27
2023-01-21T19:16:35.742Z,9.53
2023-01-21T19:19:59.921Z,11.90
2023-01-21T19:23:23.482Z,12.33
2023-01-21T19:26:46.936Z,10.80
2023-01-21T19:30:22.555Z,14.50
2023-01-21T19:33:47.461Z,10.30
2023-01-21T19:37:14.875Z,12.47
2023-01-21T19:40:39.065Z,13.10
2023-01-21T19:44:02.855Z,11.97
2023-01-21T19:47:30.540Z,14.37
2023-01-21T19:50:55.524Z,10.37
2023-01-21T19:54:19.343Z,15.90
2023-01-21T19:57:45.449Z,9.73
2023-01-21T20:01:09.038Z,13.67
2023-01-21T20:04:32.631Z,14.33
2023-01-21T20:07:57.764Z,13.60
2023-01-21T20:11:21.964Z,13.70
2023-01-21T20:14:45.585Z,13.10
2023-01-21T20:18:20.394Z,15.30
2023-01-21T20:21:55.062Z,16.93
2023-01-21T20:25:37.059Z,14.97
2023-01-21T20:29:03.488Z,10.57
2023-01-21T20:32:27.241Z,17.00
2023-01-21T20:35:54.205Z,16.07
2023-01-21T20:39:17.635Z,15.57
2023-01-21T20:42:42.574Z,14.33
2023-01-21T20:46:12.845Z,13.60
2023-01-21T20:49:36.383Z,19.23
2023-01-21T20:53:00.259Z,14.63
2023-01-21T20:56:27.819Z,19.90
2023-01-21T20:59:52.665Z,15.80
2023-01-21T21:03:18.244Z,17.57
2023-01-21T21:06:45.597Z,15.90
2023-01-21T21:10:19.711Z,16.20
2023-01-21T21:13:43.596Z,16.80
2023-01-21T21:17:12.836Z,13.50
2023-01-21T21:20:39.800Z,13.73
2023-01-21T21:24:06.486Z,14.60
2023-01-21T21:27:30.032Z,13.90
2023-01-21T21:30:53.612Z,15.50
2023-01-21T21:34:18.900Z,15.50
2023-01-21T21:37:43.627Z,11.33
2023-01-21T21:41:27.160Z,15.40
2023-01-21T21:44:50.663Z,17.57
2023-01-21T21:48:39.815Z,13.33
2023-01-21T21:52:05.006Z,15.00
2023-01-21T21:55:28.735Z,11.50
2023-01-21T21:58:53.245Z,14.33
2023-01-21T22:02:16.734Z,13.93
2023-01-21T22:05:40.250Z,16.70
2023-01-21T22:09:05.796Z,14.60
2023-01-21T22:12:29.310Z,14.60
2023-01-21T22:15:55.712Z,14.20
2023-01-21T22:19:19.295Z,12.80
2023-01-21T22:22:42.808Z,11.73
2023-01-21T22:26:15.409Z,13.00
2023-01-21T22:29:39.052Z,13.60
2023-01-21T22:33:02.576Z,12.13
2023-01-21T22:36:29.460Z,12.97
2023-01-21T22:39:53.223Z,11.17
2023-01-21T22:43:20.874Z,11.40
2023-01-21T22:46:45.650Z,13.03
2023-01-21T22:50:10.891Z,12.50
2023-01-21T22:53:35.627Z,10.33
2023-01-21T22:56:59.396Z,11.37
2023-01-21T23:00:37.979Z,12.40
2023-01-21T23:04:02.160Z,11.50
2023-01-21T23:07:26.115Z,11.30
2023-01-21T23:10:50.044Z,11.70
2023-01-21T23:14:14.019Z,12.70
2023-01-21T23:17:38.805Z,9.60
2023-01-21T23:21:07.522Z,9.83
2023-01-21T23:24:30.992Z,10.43
2023-01-21T23:27:54.835Z,9.90
2023-01-21T23:31:19.171Z,9.40
2023-01-21T23:34:44.600Z,11.93
2023-01-21T23:38:08.432Z,7.87
2023-01-21T23:41:32.291Z,10.43
2023-01-21T23:44:56.137Z,10.40
2023-01-21T23:48:19.980Z,11.87
2023-01-21T23:51:45.085Z,10.93
2023-01-21T23:55:10.964Z,8.50
2023-01-21T23:58:34.847Z,9.53
